sensor_id;sensor_type;location;lat;lon;timestamp;pressure;altitude;pressure_sealevel;temperature;humidity
79782;BME280;69262;48.470;7.960;2023-05-29T00:00:50;99719.47;;;21.26;47.90
79782;BME280;69262;48.470;7.960;2023-05-29T00:03:52;99696.78;;;21.14;47.55
79782;BME280;69262;48.470;7.960;2023-05-29T00:06:52;99692.13;;;21.14;47.54
79782;BME280;69262;48.470;7.960;2023-05-29T00:09:52;99689.00;;;21.05;47.75
79782;BME280;69262;48.470;7.960;2023-05-29T00:12:53;99715.53;;;21.22;47.94
79782;BME280;69262;48.470;7.960;2023-05-29T00:15:56;99700.41;;;21.19;47.60
79782;BME280;69262;48.470;7.960;2023-05-29T00:18:56;99684.34;;;21.06;47.88
79782;BME280;69262;48.470;7.960;2023-05-29T00:21:57;99685.72;;;21.08;47.65
79782;BME280;69262;48.470;7.960;2023-05-29T00:24:58;99700.72;;;21.23;47.93
79782;BME280;69262;48.470;7.960;2023-05-29T00:27:58;99704.50;;;21.17;48.13
79782;BME280;69262;48.470;7.960;2023-05-29T00:30:58;99687.97;;;21.12;47.74
79782;BME280;69262;48.470;7.960;2023-05-29T00:33:59;99680.50;;;21.07;47.85
79782;BME280;69262;48.470;7.960;2023-05-29T00:37:00;99670.25;;;21.02;47.99
79782;BME280;69262;48.470;7.960;2023-05-29T00:40:02;99676.31;;;21.04;47.59
79782;BME280;69262;48.470;7.960;2023-05-29T00:43:03;99688.47;;;21.08;47.69
79782;BME280;69262;48.470;7.960;2023-05-29T00:46:04;99701.38;;;21.08;47.47
79782;BME280;69262;48.470;7.960;2023-05-29T00:49:05;99714.91;;;21.15;47.83
79782;BME280;69262;48.470;7.960;2023-05-29T00:52:07;99697.72;;;21.02;47.43
79782;BME280;69262;48.470;7.960;2023-05-29T00:55:08;99699.38;;;21.03;47.59
79782;BME280;69262;48.470;7.960;2023-05-29T00:58:09;99688.00;;;20.95;47.69
79782;BME280;69262;48.470;7.960;2023-05-29T01:01:09;99684.13;;;20.91;47.62
79782;BME280;69262;48.470;7.960;2023-05-29T01:04:11;99674.47;;;20.88;47.98
79782;BME280;69262;48.470;7.960;2023-05-29T01:07:12;99699.31;;;20.98;48.01
79782;BME280;69262;48.470;7.960;2023-05-29T01:10:14;99690.69;;;20.90;48.13
79782;BME280;69262;48.470;7.960;2023-05-29T01:13:19;99692.91;;;20.93;48.19
79782;BME280;69262;48.470;7.960;2023-05-29T01:16:55;99697.91;;;20.96;48.02
79782;BME280;69262;48.470;7.960;2023-05-29T01:20:18;99710.34;;;21.03;48.41
79782;BME280;69262;48.470;7.960;2023-05-29T01:23:38;99702.50;;;20.90;48.25
79782;BME280;69262;48.470;7.960;2023-05-29T01:26:54;99694.00;;;20.92;48.30
79782;BME280;69262;48.470;7.960;2023-05-29T01:29:56;99683.72;;;20.82;48.38
79782;BME280;69262;48.470;7.960;2023-05-29T01:32:58;99686.78;;;20.86;48.21
79782;BME280;69262;48.470;7.960;2023-05-29T01:35:59;99693.00;;;20.81;48.37
79782;BME280;69262;48.470;7.960;2023-05-29T01:38:59;99702.16;;;20.87;48.58
79782;BME280;69262;48.470;7.960;2023-05-29T01:42:00;99689.69;;;20.79;48.20
79782;BME280;69262;48.470;7.960;2023-05-29T01:45:02;99709.63;;;20.91;48.42
79782;BME280;69262;48.470;7.960;2023-05-29T01:48:06;99709.06;;;20.89;48.62
79782;BME280;69262;48.470;7.960;2023-05-29T01:51:09;99691.22;;;20.70;48.40
79782;BME280;69262;48.470;7.960;2023-05-29T01:54:11;99690.63;;;20.68;48.75
79782;BME280;69262;48.470;7.960;2023-05-29T01:57:12;99707.69;;;20.70;48.72
79782;BME280;69262;48.470;7.960;2023-05-29T02:00:13;99709.91;;;20.73;48.53
79782;BME280;69262;48.470;7.960;2023-05-29T02:03:14;99710.50;;;20.75;48.17
79782;BME280;69262;48.470;7.960;2023-05-29T02:06:15;99693.88;;;20.65;48.22
79782;BME280;69262;48.470;7.960;2023-05-29T02:09:16;99715.97;;;20.75;48.42
79782;BME280;69262;48.470;7.960;2023-05-29T02:12:17;99692.63;;;20.56;48.72
79782;BME280;69262;48.470;7.960;2023-05-29T02:15:17;99717.81;;;20.69;48.35
79782;BME280;69262;48.470;7.960;2023-05-29T02:18:18;99707.34;;;20.66;48.42
79782;BME280;69262;48.470;7.960;2023-05-29T02:21:19;99682.50;;;20.56;48.27
79782;BME280;69262;48.470;7.960;2023-05-29T02:24:19;99702.28;;;20.58;48.71
79782;BME280;69262;48.470;7.960;2023-05-29T02:27:20;99670.81;;;20.44;48.30
79782;BME280;69262;48.470;7.960;2023-05-29T02:30:20;99712.00;;;20.66;48.46
79782;BME280;69262;48.470;7.960;2023-05-29T02:33:21;99688.47;;;20.53;48.24
79782;BME280;69262;48.470;7.960;2023-05-29T02:36:22;99719.91;;;20.62;48.46
79782;BME280;69262;48.470;7.960;2023-05-29T02:39:22;99734.28;;;20.69;48.22
79782;BME280;69262;48.470;7.960;2023-05-29T02:42:22;99711.31;;;20.59;48.52
79782;BME280;69262;48.470;7.960;2023-05-29T02:45:22;99690.81;;;20.44;48.46
79782;BME280;69262;48.470;7.960;2023-05-29T02:48:23;99729.56;;;20.65;48.40
79782;BME280;69262;48.470;7.960;2023-05-29T02:51:23;99703.47;;;20.45;48.73
79782;BME280;69262;48.470;7.960;2023-05-29T02:54:24;99719.56;;;20.59;48.97
79782;BME280;69262;48.470;7.960;2023-05-29T02:57:25;99726.13;;;20.58;48.71
79782;BME280;69262;48.470;7.960;2023-05-29T03:00:26;99702.94;;;20.48;48.75
79782;BME280;69262;48.470;7.960;2023-05-29T03:03:28;99705.44;;;20.50;48.51
79782;BME280;69262;48.470;7.960;2023-05-29T03:06:28;99713.34;;;20.46;48.69
79782;BME280;69262;48.470;7.960;2023-05-29T03:09:28;99705.25;;;20.40;48.70
79782;BME280;69262;48.470;7.960;2023-05-29T03:12:30;99715.19;;;20.41;48.88
79782;BME280;69262;48.470;7.960;2023-05-29T03:15:31;99715.50;;;20.44;48.66
79782;BME280;69262;48.470;7.960;2023-05-29T03:18:31;99696.84;;;20.30;48.71
79782;BME280;69262;48.470;7.960;2023-05-29T03:21:31;99718.50;;;20.43;48.93
79782;BME280;69262;48.470;7.960;2023-05-29T03:24:32;99697.59;;;20.25;48.99
79782;BME280;69262;48.470;7.960;2023-05-29T03:27:35;99733.44;;;20.52;48.94
79782;BME280;69262;48.470;7.960;2023-05-29T03:30:49;99726.63;;;20.38;48.94
79782;BME280;69262;48.470;7.960;2023-05-29T03:33:52;99701.69;;;20.23;48.97
79782;BME280;69262;48.470;7.960;2023-05-29T03:37:00;99722.56;;;20.40;48.83
79782;BME280;69262;48.470;7.960;2023-05-29T03:40:03;99732.09;;;20.38;49.20
79782;BME280;69262;48.470;7.960;2023-05-29T03:43:04;99718.97;;;20.23;49.69
79782;BME280;69262;48.470;7.960;2023-05-29T03:46:05;99736.16;;;20.35;49.58
79782;BME280;69262;48.470;7.960;2023-05-29T03:49:07;99726.19;;;20.29;49.44
79782;BME280;69262;48.470;7.960;2023-05-29T03:52:09;99733.31;;;20.30;49.12
79782;BME280;69262;48.470;7.960;2023-05-29T03:55:10;99740.97;;;20.28;49.28
79782;BME280;69262;48.470;7.960;2023-05-29T03:58:15;99732.16;;;20.26;49.14
79782;BME280;69262;48.470;7.960;2023-05-29T04:01:16;99734.06;;;20.26;49.22
79782;BME280;69262;48.470;7.960;2023-05-29T04:04:16;99727.72;;;20.08;49.64
79782;BME280;69262;48.470;7.960;2023-05-29T04:07:18;99763.16;;;20.27;49.45
79782;BME280;69262;48.470;7.960;2023-05-29T04:10:22;99757.16;;;20.30;49.23
79782;BME280;69262;48.470;7.960;2023-05-29T04:13:23;99756.59;;;20.28;49.42
79782;BME280;69262;48.470;7.960;2023-05-29T04:16:24;99755.50;;;20.29;49.76
79782;BME280;69262;48.470;7.960;2023-05-29T04:19:24;99724.25;;;20.13;49.07
79782;BME280;69262;48.470;7.960;2023-05-29T04:22:24;99750.09;;;20.17;49.34
79782;BME280;69262;48.470;7.960;2023-05-29T04:25:25;99726.31;;;20.06;49.59
79782;BME280;69262;48.470;7.960;2023-05-29T04:28:25;99733.13;;;20.03;49.83
79782;BME280;69262;48.470;7.960;2023-05-29T04:31:27;99744.00;;;19.98;50.16
79782;BME280;69262;48.470;7.960;2023-05-29T04:34:29;99757.13;;;20.13;49.83
79782;BME280;69262;48.470;7.960;2023-05-29T04:37:31;99784.41;;;20.19;50.09
79782;BME280;69262;48.470;7.960;2023-05-29T04:40:38;99791.88;;;20.24;49.88
79782;BME280;69262;48.470;7.960;2023-05-29T04:43:40;99790.84;;;20.13;50.17
79782;BME280;69262;48.470;7.960;2023-05-29T04:46:40;99805.94;;;20.28;50.24
79782;BME280;69262;48.470;7.960;2023-05-29T04:49:44;99794.06;;;20.22;50.40
79782;BME280;69262;48.470;7.960;2023-05-29T04:52:48;99804.34;;;20.32;50.19
79782;BME280;69262;48.470;7.960;2023-05-29T04:55:49;99819.47;;;20.34;49.83
79782;BME280;69262;48.470;7.960;2023-05-29T04:58:50;99810.59;;;20.27;49.63
79782;BME280;69262;48.470;7.960;2023-05-29T05:01:51;99815.50;;;20.25;50.41
79782;BME280;69262;48.470;7.960;2023-05-29T05:04:52;99792.47;;;20.26;49.93
79782;BME280;69262;48.470;7.960;2023-05-29T05:07:52;99808.84;;;20.49;50.23
79782;BME280;69262;48.470;7.960;2023-05-29T05:10:54;99831.88;;;20.65;50.02
79782;BME280;69262;48.470;7.960;2023-05-29T05:13:55;99808.63;;;20.39;50.29
79782;BME280;69262;48.470;7.960;2023-05-29T05:16:55;99806.97;;;20.38;50.08
79782;BME280;69262;48.470;7.960;2023-05-29T05:19:56;99815.91;;;20.45;50.01
79782;BME280;69262;48.470;7.960;2023-05-29T05:22:57;99823.53;;;20.43;50.04
79782;BME280;69262;48.470;7.960;2023-05-29T05:25:57;99834.34;;;20.50;50.06
79782;BME280;69262;48.470;7.960;2023-05-29T05:28:58;99823.88;;;20.47;50.05
79782;BME280;69262;48.470;7.960;2023-05-29T05:32:01;99834.19;;;20.57;49.85
79782;BME280;69262;48.470;7.960;2023-05-29T05:35:02;99808.88;;;20.38;49.73
79782;BME280;69262;48.470;7.960;2023-05-29T05:38:03;99838.84;;;20.56;49.76
79782;BME280;69262;48.470;7.960;2023-05-29T05:41:04;99825.88;;;20.52;49.61
79782;BME280;69262;48.470;7.960;2023-05-29T05:44:06;99834.69;;;20.54;49.82
79782;BME280;69262;48.470;7.960;2023-05-29T05:47:19;99827.19;;;20.49;49.78
79782;BME280;69262;48.470;7.960;2023-05-29T05:50:20;99797.91;;;20.38;49.42
79782;BME280;69262;48.470;7.960;2023-05-29T05:53:21;99821.97;;;20.47;49.60
79782;BME280;69262;48.470;7.960;2023-05-29T05:56:22;99851.00;;;20.60;49.58
79782;BME280;69262;48.470;7.960;2023-05-29T05:59:22;99831.09;;;20.25;49.01
79782;BME280;69262;48.470;7.960;2023-05-29T06:02:22;99819.88;;;18.87;50.74
79782;BME280;69262;48.470;7.960;2023-05-29T06:05:23;99848.88;;;18.77;51.54
79782;BME280;69262;48.470;7.960;2023-05-29T06:08:23;99840.41;;;18.78;51.48
79782;BME280;69262;48.470;7.960;2023-05-29T06:11:25;99866.50;;;18.92;50.92
79782;BME280;69262;48.470;7.960;2023-05-29T06:14:26;99833.75;;;18.74;51.88
79782;BME280;69262;48.470;7.960;2023-05-29T06:17:27;99841.97;;;18.74;51.61
79782;BME280;69262;48.470;7.960;2023-05-29T06:20:27;99858.28;;;18.81;52.01
79782;BME280;69262;48.470;7.960;2023-05-29T06:23:28;99827.81;;;18.65;51.92
79782;BME280;69262;48.470;7.960;2023-05-29T06:26:28;99854.25;;;18.95;51.86
79782;BME280;69262;48.470;7.960;2023-05-29T06:29:28;99840.44;;;18.90;52.12
79782;BME280;69262;48.470;7.960;2023-05-29T06:32:29;99844.06;;;19.02;52.10
79782;BME280;69262;48.470;7.960;2023-05-29T06:35:32;99847.63;;;19.03;51.64
79782;BME280;69262;48.470;7.960;2023-05-29T06:38:33;99843.31;;;18.95;50.75
79782;BME280;69262;48.470;7.960;2023-05-29T06:41:33;99858.09;;;19.29;51.59
79782;BME280;69262;48.470;7.960;2023-05-29T06:44:33;99849.97;;;19.22;51.35
79782;BME280;69262;48.470;7.960;2023-05-29T06:47:34;99875.34;;;19.41;50.96
79782;BME280;69262;48.470;7.960;2023-05-29T06:50:35;99875.47;;;19.35;52.19
79782;BME280;69262;48.470;7.960;2023-05-29T06:53:48;99880.09;;;19.46;51.23
79782;BME280;69262;48.470;7.960;2023-05-29T06:56:50;99885.47;;;19.52;51.43
79782;BME280;69262;48.470;7.960;2023-05-29T06:59:50;99880.22;;;19.51;50.69
79782;BME280;69262;48.470;7.960;2023-05-29T07:02:51;99888.56;;;19.68;50.57
79782;BME280;69262;48.470;7.960;2023-05-29T07:05:52;99800.84;;;19.27;50.69
79782;BME280;69262;48.470;7.960;2023-05-29T07:08:53;99831.75;;;19.63;50.25
79782;BME280;69262;48.470;7.960;2023-05-29T07:11:54;99877.81;;;19.89;50.00
79782;BME280;69262;48.470;7.960;2023-05-29T07:14:54;99854.50;;;19.75;49.65
79782;BME280;69262;48.470;7.960;2023-05-29T07:17:55;99879.94;;;20.39;48.46
79782;BME280;69262;48.470;7.960;2023-05-29T07:21:00;99869.69;;;20.80;48.19
79782;BME280;69262;48.470;7.960;2023-05-29T07:24:02;99853.25;;;20.97;47.43
79782;BME280;69262;48.470;7.960;2023-05-29T07:27:02;99881.47;;;21.26;47.51
79782;BME280;69262;48.470;7.960;2023-05-29T07:30:03;99879.03;;;21.46;47.46
79782;BME280;69262;48.470;7.960;2023-05-29T07:33:04;99846.84;;;21.42;47.81
79782;BME280;69262;48.470;7.960;2023-05-29T07:36:05;99858.59;;;21.37;47.68
79782;BME280;69262;48.470;7.960;2023-05-29T07:39:06;99876.78;;;21.60;47.30
79782;BME280;69262;48.470;7.960;2023-05-29T07:42:08;99873.84;;;21.66;47.61
79782;BME280;69262;48.470;7.960;2023-05-29T07:45:09;99883.91;;;21.78;47.72
79782;BME280;69262;48.470;7.960;2023-05-29T07:48:09;99885.41;;;21.68;47.59
79782;BME280;69262;48.470;7.960;2023-05-29T07:51:10;99877.88;;;21.81;47.28
79782;BME280;69262;48.470;7.960;2023-05-29T07:54:13;99874.06;;;21.82;47.42
79782;BME280;69262;48.470;7.960;2023-05-29T07:57:17;99867.22;;;21.84;47.22
79782;BME280;69262;48.470;7.960;2023-05-29T08:00:18;99870.03;;;21.89;47.56
79782;BME280;69262;48.470;7.960;2023-05-29T08:03:21;99853.66;;;21.78;47.34
79782;BME280;69262;48.470;7.960;2023-05-29T08:06:40;99856.72;;;21.81;47.48
79782;BME280;69262;48.470;7.960;2023-05-29T08:09:43;99865.41;;;21.95;47.47
79782;BME280;69262;48.470;7.960;2023-05-29T08:12:43;99872.50;;;22.08;47.05
79782;BME280;69262;48.470;7.960;2023-05-29T08:15:43;99847.59;;;21.97;46.99
79782;BME280;69262;48.470;7.960;2023-05-29T08:18:44;99856.16;;;22.01;47.51
79782;BME280;69262;48.470;7.960;2023-05-29T08:21:44;99849.91;;;22.06;47.19
79782;BME280;69262;48.470;7.960;2023-05-29T08:24:45;99871.53;;;22.19;47.14
79782;BME280;69262;48.470;7.960;2023-05-29T08:27:45;99869.28;;;22.16;46.53
79782;BME280;69262;48.470;7.960;2023-05-29T08:30:45;99851.03;;;21.88;46.72
79782;BME280;69262;48.470;7.960;2023-05-29T08:33:46;99872.72;;;21.84;47.25
79782;BME280;69262;48.470;7.960;2023-05-29T08:36:46;99872.00;;;21.94;48.37
79782;BME280;69262;48.470;7.960;2023-05-29T08:39:46;99848.59;;;21.69;47.98
79782;BME280;69262;48.470;7.960;2023-05-29T08:42:51;99871.94;;;21.89;48.70
79782;BME280;69262;48.470;7.960;2023-05-29T08:45:54;99850.41;;;22.02;47.82
79782;BME280;69262;48.470;7.960;2023-05-29T08:48:58;99860.31;;;22.04;47.84
79782;BME280;69262;48.470;7.960;2023-05-29T08:52:09;99849.66;;;22.07;46.92
79782;BME280;69262;48.470;7.960;2023-05-29T08:55:11;99864.34;;;21.96;48.33
79782;BME280;69262;48.470;7.960;2023-05-29T08:58:13;99849.56;;;22.02;47.00
79782;BME280;69262;48.470;7.960;2023-05-29T09:01:14;99859.06;;;22.11;48.02
79782;BME280;69262;48.470;7.960;2023-05-29T09:04:14;99851.13;;;22.15;47.12
79782;BME280;69262;48.470;7.960;2023-05-29T09:07:16;99867.22;;;22.28;47.56
79782;BME280;69262;48.470;7.960;2023-05-29T09:10:19;99842.03;;;22.14;47.44
79782;BME280;69262;48.470;7.960;2023-05-29T09:13:20;99848.19;;;22.21;47.68
79782;BME280;69262;48.470;7.960;2023-05-29T09:16:20;99838.09;;;22.05;47.49
79782;BME280;69262;48.470;7.960;2023-05-29T09:19:22;99868.38;;;22.32;47.08
79782;BME280;69262;48.470;7.960;2023-05-29T09:22:22;99869.38;;;22.48;46.97
79782;BME280;69262;48.470;7.960;2023-05-29T09:25:24;99860.16;;;22.37;46.71
79782;BME280;69262;48.470;7.960;2023-05-29T09:28:25;99861.38;;;22.46;46.53
79782;BME280;69262;48.470;7.960;2023-05-29T09:31:27;99852.47;;;22.39;47.22
79782;BME280;69262;48.470;7.960;2023-05-29T09:34:30;99869.94;;;22.50;47.05
79782;BME280;69262;48.470;7.960;2023-05-29T09:37:31;99844.22;;;22.39;47.10
79782;BME280;69262;48.470;7.960;2023-05-29T09:40:33;99863.91;;;22.53;46.49
79782;BME280;69262;48.470;7.960;2023-05-29T09:43:34;99851.25;;;22.52;46.47
79782;BME280;69262;48.470;7.960;2023-05-29T09:46:34;99866.72;;;22.58;46.79
79782;BME280;69262;48.470;7.960;2023-05-29T09:49:40;99855.09;;;22.51;46.86
79782;BME280;69262;48.470;7.960;2023-05-29T09:52:41;99864.06;;;22.68;46.48
79782;BME280;69262;48.470;7.960;2023-05-29T09:55:41;99864.44;;;22.77;46.36
79782;BME280;69262;48.470;7.960;2023-05-29T09:58:42;99856.34;;;22.65;46.84
79782;BME280;69262;48.470;7.960;2023-05-29T10:01:47;99859.72;;;22.72;46.48
79782;BME280;69262;48.470;7.960;2023-05-29T10:04:48;99858.88;;;22.72;46.53
79782;BME280;69262;48.470;7.960;2023-05-29T10:07:50;99850.84;;;22.65;46.92
79782;BME280;69262;48.470;7.960;2023-05-29T10:10:58;99838.91;;;22.54;47.77
79782;BME280;69262;48.470;7.960;2023-05-29T10:14:00;99851.47;;;22.45;48.13
79782;BME280;69262;48.470;7.960;2023-05-29T10:17:02;99821.56;;;22.27;48.99
79782;BME280;69262;48.470;7.960;2023-05-29T10:20:08;99825.16;;;22.27;48.28
79782;BME280;69262;48.470;7.960;2023-05-29T10:23:13;99833.22;;;22.39;48.26
79782;BME280;69262;48.470;7.960;2023-05-29T10:26:18;99825.66;;;22.24;48.92
79782;BME280;69262;48.470;7.960;2023-05-29T10:29:31;99842.69;;;22.48;48.15
79782;BME280;69262;48.470;7.960;2023-05-29T10:32:59;99831.44;;;22.50;48.27
79782;BME280;69262;48.470;7.960;2023-05-29T10:36:07;99827.59;;;22.51;48.35
79782;BME280;69262;48.470;7.960;2023-05-29T10:39:10;99803.50;;;22.36;47.95
79782;BME280;69262;48.470;7.960;2023-05-29T10:48:40;99818.13;;;22.69;47.68
79782;BME280;69262;48.470;7.960;2023-05-29T10:51:41;99800.69;;;22.58;47.83
79782;BME280;69262;48.470;7.960;2023-05-29T10:54:50;99809.19;;;22.56;48.04
79782;BME280;69262;48.470;7.960;2023-05-29T10:57:52;99797.66;;;22.59;47.83
79782;BME280;69262;48.470;7.960;2023-05-29T11:00:54;99803.00;;;22.71;47.89
79782;BME280;69262;48.470;7.960;2023-05-29T11:07:33;99753.53;;;22.44;48.30
79782;BME280;69262;48.470;7.960;2023-05-29T11:10:56;99777.22;;;22.50;48.31
79782;BME280;69262;48.470;7.960;2023-05-29T11:14:00;99797.97;;;22.90;47.51
79782;BME280;69262;48.470;7.960;2023-05-29T11:17:04;99795.41;;;22.83;47.91
79782;BME280;69262;48.470;7.960;2023-05-29T11:23:07;99805.22;;;22.74;48.37
79782;BME280;69262;48.470;7.960;2023-05-29T11:26:08;99795.16;;;22.58;48.63
79782;BME280;69262;48.470;7.960;2023-05-29T11:29:09;99791.84;;;22.83;47.68
79782;BME280;69262;48.470;7.960;2023-05-29T11:32:14;99794.31;;;22.84;48.32
79782;BME280;69262;48.470;7.960;2023-05-29T11:35:19;99790.31;;;22.65;48.85
79782;BME280;69262;48.470;7.960;2023-05-29T11:38:21;99773.94;;;22.53;49.20
79782;BME280;69262;48.470;7.960;2023-05-29T11:41:22;99772.13;;;22.64;48.58
79782;BME280;69262;48.470;7.960;2023-05-29T11:44:26;99766.78;;;22.52;48.77
79782;BME280;69262;48.470;7.960;2023-05-29T11:47:26;99776.44;;;22.55;48.76
79782;BME280;69262;48.470;7.960;2023-05-29T11:50:31;99766.25;;;22.55;48.96
79782;BME280;69262;48.470;7.960;2023-05-29T11:53:31;99755.56;;;22.59;48.90
79782;BME280;69262;48.470;7.960;2023-05-29T11:56:31;99740.44;;;22.61;48.56
79782;BME280;69262;48.470;7.960;2023-05-29T11:59:32;99767.69;;;22.63;48.83
79782;BME280;69262;48.470;7.960;2023-05-29T12:02:33;99764.91;;;22.58;49.05
79782;BME280;69262;48.470;7.960;2023-05-29T12:08:51;99755.56;;;22.59;49.04
79782;BME280;69262;48.470;7.960;2023-05-29T12:11:51;99751.34;;;22.46;49.33
79782;BME280;69262;48.470;7.960;2023-05-29T12:14:51;99755.56;;;22.59;48.80
79782;BME280;69262;48.470;7.960;2023-05-29T12:17:53;99764.63;;;22.59;48.71
79782;BME280;69262;48.470;7.960;2023-05-29T12:20:59;99737.88;;;22.50;48.97
79782;BME280;69262;48.470;7.960;2023-05-29T12:23:59;99762.72;;;22.60;48.95
79782;BME280;69262;48.470;7.960;2023-05-29T12:27:04;99759.19;;;22.65;48.85
79782;BME280;69262;48.470;7.960;2023-05-29T12:30:04;99764.38;;;22.61;48.92
79782;BME280;69262;48.470;7.960;2023-05-29T12:33:05;99695.06;;;22.27;48.98
79782;BME280;69262;48.470;7.960;2023-05-29T12:36:08;99756.19;;;22.66;48.87
79782;BME280;69262;48.470;7.960;2023-05-29T12:39:09;99750.59;;;22.56;49.05
79782;BME280;69262;48.470;7.960;2023-05-29T12:42:11;99749.28;;;22.64;48.92
79782;BME280;69262;48.470;7.960;2023-05-29T12:45:12;99735.97;;;22.50;48.95
79782;BME280;69262;48.470;7.960;2023-05-29T12:48:12;99750.06;;;22.59;49.14
79782;BME280;69262;48.470;7.960;2023-05-29T12:51:13;99740.13;;;22.58;48.87
79782;BME280;69262;48.470;7.960;2023-05-29T12:54:14;99759.22;;;22.70;48.74
79782;BME280;69262;48.470;7.960;2023-05-29T12:57:15;99725.56;;;22.57;48.77
79782;BME280;69262;48.470;7.960;2023-05-29T13:00:16;99743.03;;;22.73;48.65
79782;BME280;69262;48.470;7.960;2023-05-29T13:03:17;99755.16;;;22.77;48.61
79782;BME280;69262;48.470;7.960;2023-05-29T13:06:18;99739.44;;;22.73;48.29
79782;BME280;69262;48.470;7.960;2023-05-29T13:09:18;99749.94;;;22.81;48.51
79782;BME280;69262;48.470;7.960;2023-05-29T13:12:18;99754.84;;;22.74;48.62
79782;BME280;69262;48.470;7.960;2023-05-29T13:15:19;99767.06;;;22.83;48.42
79782;BME280;69262;48.470;7.960;2023-05-29T13:18:19;99759.63;;;22.83;48.43
79782;BME280;69262;48.470;7.960;2023-05-29T13:21:20;99749.72;;;22.82;48.12
79782;BME280;69262;48.470;7.960;2023-05-29T13:24:20;99761.88;;;22.86;48.03
79782;BME280;69262;48.470;7.960;2023-05-29T13:27:20;99748.69;;;22.94;48.03
79782;BME280;69262;48.470;7.960;2023-05-29T13:30:21;99765.22;;;22.94;47.85
79782;BME280;69262;48.470;7.960;2023-05-29T13:33:22;99728.03;;;22.86;47.87
79782;BME280;69262;48.470;7.960;2023-05-29T13:36:22;99738.69;;;22.82;47.71
79782;BME280;69262;48.470;7.960;2023-05-29T13:39:23;99747.03;;;22.87;48.12
79782;BME280;69262;48.470;7.960;2023-05-29T13:42:23;99758.09;;;22.98;47.71
79782;BME280;69262;48.470;7.960;2023-05-29T13:45:23;99757.28;;;23.02;47.92
79782;BME280;69262;48.470;7.960;2023-05-29T13:48:24;99746.81;;;22.99;47.85
79782;BME280;69262;48.470;7.960;2023-05-29T13:51:24;99728.34;;;22.95;47.46
79782;BME280;69262;48.470;7.960;2023-05-29T13:54:24;99738.25;;;22.96;47.85
79782;BME280;69262;48.470;7.960;2023-05-29T13:57:27;99732.22;;;22.99;47.58
79782;BME280;69262;48.470;7.960;2023-05-29T14:00:27;99743.31;;;23.09;47.52
79782;BME280;69262;48.470;7.960;2023-05-29T14:03:28;99714.84;;;22.93;47.25
79782;BME280;69262;48.470;7.960;2023-05-29T14:06:32;99744.97;;;23.10;47.60
79782;BME280;69262;48.470;7.960;2023-05-29T14:09:33;99755.16;;;23.14;47.47
79782;BME280;69262;48.470;7.960;2023-05-29T14:12:33;99747.19;;;23.18;47.41
79782;BME280;69262;48.470;7.960;2023-05-29T14:15:34;99749.44;;;23.26;47.20
79782;BME280;69262;48.470;7.960;2023-05-29T14:18:34;99727.38;;;23.16;47.14
79782;BME280;69262;48.470;7.960;2023-05-29T14:21:34;99738.41;;;23.26;47.13
79782;BME280;69262;48.470;7.960;2023-05-29T14:24:36;99732.03;;;23.15;47.19
79782;BME280;69262;48.470;7.960;2023-05-29T14:27:36;99733.81;;;23.37;47.21
79782;BME280;69262;48.470;7.960;2023-05-29T14:30:37;99697.16;;;23.31;46.15
79782;BME280;69262;48.470;7.960;2023-05-29T14:33:37;99722.81;;;23.52;46.65
79782;BME280;69262;48.470;7.960;2023-05-29T14:36:38;99716.72;;;23.40;46.81
79782;BME280;69262;48.470;7.960;2023-05-29T14:39:38;99738.81;;;23.50;46.58
79782;BME280;69262;48.470;7.960;2023-05-29T14:42:38;99740.56;;;23.61;45.90
79782;BME280;69262;48.470;7.960;2023-05-29T14:45:39;99722.00;;;23.51;45.90
79782;BME280;69262;48.470;7.960;2023-05-29T14:48:39;99741.09;;;23.63;45.45
79782;BME280;69262;48.470;7.960;2023-05-29T14:51:40;99726.50;;;23.58;46.21
79782;BME280;69262;48.470;7.960;2023-05-29T14:54:42;99727.06;;;23.70;45.79
79782;BME280;69262;48.470;7.960;2023-05-29T14:57:43;99741.41;;;23.72;43.47
79782;BME280;69262;48.470;7.960;2023-05-29T15:00:43;99735.41;;;23.90;45.39
79782;BME280;69262;48.470;7.960;2023-05-29T15:03:43;99728.81;;;24.01;44.49
79782;BME280;69262;48.470;7.960;2023-05-29T15:06:44;99733.50;;;24.01;44.16
79782;BME280;69262;48.470;7.960;2023-05-29T15:09:45;99735.44;;;24.05;41.94
79782;BME280;69262;48.470;7.960;2023-05-29T15:12:45;99727.41;;;23.99;44.16
79782;BME280;69262;48.470;7.960;2023-05-29T15:15:46;99733.50;;;24.06;41.23
79782;BME280;69262;48.470;7.960;2023-05-29T15:18:46;99719.72;;;24.01;40.27
79782;BME280;69262;48.470;7.960;2023-05-29T15:21:46;99723.84;;;24.03;41.12
79782;BME280;69262;48.470;7.960;2023-05-29T15:24:47;99722.16;;;23.97;43.41
79782;BME280;69262;48.470;7.960;2023-05-29T15:27:47;99726.94;;;24.37;40.24
79782;BME280;69262;48.470;7.960;2023-05-29T15:30:47;99705.38;;;24.19;38.90
79782;BME280;69262;48.470;7.960;2023-05-29T15:33:48;99721.09;;;24.13;42.80
79782;BME280;69262;48.470;7.960;2023-05-29T15:36:49;99712.56;;;24.15;42.62
79782;BME280;69262;48.470;7.960;2023-05-29T15:39:49;99713.94;;;24.07;41.90
79782;BME280;69262;48.470;7.960;2023-05-29T15:42:49;99702.59;;;23.83;44.29
79782;BME280;69262;48.470;7.960;2023-05-29T15:45:50;99702.59;;;23.99;44.35
79782;BME280;69262;48.470;7.960;2023-05-29T15:48:50;99706.53;;;24.33;40.58
79782;BME280;69262;48.470;7.960;2023-05-29T15:51:51;99703.44;;;23.99;40.67
79782;BME280;69262;48.470;7.960;2023-05-29T15:54:51;99678.88;;;23.77;43.09
79782;BME280;69262;48.470;7.960;2023-05-29T15:57:52;99697.66;;;24.11;40.92
79782;BME280;69262;48.470;7.960;2023-05-29T16:00:52;99714.75;;;24.18;41.29
79782;BME280;69262;48.470;7.960;2023-05-29T16:03:52;99704.00;;;24.17;41.41
79782;BME280;69262;48.470;7.960;2023-05-29T16:06:53;99702.66;;;24.24;39.41
79782;BME280;69262;48.470;7.960;2023-05-29T16:09:53;99708.97;;;24.09;42.18
79782;BME280;69262;48.470;7.960;2023-05-29T16:12:54;99695.19;;;23.99;42.22
79782;BME280;69262;48.470;7.960;2023-05-29T16:15:54;99697.66;;;24.16;41.54
79782;BME280;69262;48.470;7.960;2023-05-29T16:18:55;99690.75;;;24.13;40.50